createdAt,value
2022-08-05T00:02:07.268Z,100488.94
2022-08-05T00:04:40.963Z,100493.45
2022-08-05T00:07:27.122Z,100493.73
2022-08-05T00:10:07.862Z,100478.18
2022-08-05T00:12:48.501Z,100487.79
2022-08-05T00:15:57.609Z,100476.34
2022-08-05T00:18:22.596Z,100485.89
2022-08-05T00:20:55.905Z,100484.58
2022-08-05T00:23:44.456Z,100484.89
2022-08-05T00:26:19.977Z,100481.98
2022-08-05T00:28:52.848Z,100475.98
2022-08-05T00:31:53.985Z,100478.20
2022-08-05T00:34:54.550Z,100476.11
2022-08-05T00:37:14.296Z,100474.17
2022-08-05T00:39:58.600Z,100472.57
2022-08-05T00:42:36.674Z,100472.61
2022-08-05T00:45:13.479Z,100475.82
2022-08-05T00:47:56.870Z,100469.27
2022-08-05T00:50:31.010Z,100470.19
2022-08-05T00:53:03.427Z,100467.90
2022-08-05T00:55:43.752Z,100465.40
2022-08-05T00:58:19.151Z,100469.04
2022-08-05T01:00:51.612Z,100461.16
2022-08-05T01:03:24.319Z,100461.52
2022-08-05T01:06:32.393Z,100453.23
2022-08-05T01:09:06.289Z,100462.14
2022-08-05T01:11:42.983Z,100462.91
2022-08-05T01:14:28.123Z,100460.84
2022-08-05T01:17:07.974Z,100465.79
2022-08-05T01:20:00.815Z,100463.75
2022-08-05T01:22:48.893Z,100458.69
2022-08-05T01:25:53.187Z,100453.78
2022-08-05T01:28:33.067Z,100445.81
2022-08-05T01:31:11.898Z,100441.91
2022-08-05T01:33:49.229Z,100440.10
2022-08-05T01:36:28.633Z,100442.44
2022-08-05T01:39:02.153Z,100440.95
2022-08-05T01:41:39.975Z,100443.51
2022-08-05T01:44:17.765Z,100440.55
2022-08-05T01:46:52.231Z,100440.18
2022-08-05T01:49:26.561Z,100435.69
2022-08-05T01:52:22.007Z,100434.06
2022-08-05T01:54:58.922Z,100430.86
2022-08-05T01:58:09.845Z,100431.09
2022-08-05T02:00:31.068Z,100428.44
2022-08-05T02:03:24.278Z,100422.56
2022-08-05T02:06:03.688Z,100422.05
2022-08-05T02:08:58.307Z,100422.90
2022-08-05T02:11:42.138Z,100420.69
2022-08-05T02:14:28.758Z,100423.58
2022-08-05T02:17:05.428Z,100422.61
2022-08-05T02:19:47.193Z,100422.81
2022-08-05T02:22:27.006Z,100423.94
2022-08-05T02:25:06.300Z,100422.69
2022-08-05T02:27:58.082Z,100423.49
2022-08-05T02:30:51.828Z,100418.33
2022-08-05T02:33:38.388Z,100416.08
2022-08-05T02:36:16.055Z,100418.23
2022-08-05T02:38:55.415Z,100415.05
2022-08-05T02:41:43.404Z,100415.96
2022-08-05T02:44:26.893Z,100416.61
2022-08-05T02:47:02.560Z,100414.19
2022-08-05T02:49:43.265Z,100403.71
2022-08-05T02:52:29.967Z,100417.36
2022-08-05T02:55:10.881Z,100417.41
2022-08-05T02:58:10.937Z,100419.16
2022-08-05T03:00:40.402Z,100413.88
2022-08-05T03:03:20.325Z,100414.17
2022-08-05T03:06:56.472Z,100407.19
2022-08-05T03:08:52.145Z,100400.54
2022-08-05T03:11:55.382Z,100377.70
2022-08-05T03:14:19.251Z,100392.80
2022-08-05T03:16:53.604Z,100399.02
2022-08-05T03:19:34.054Z,100399.95
2022-08-05T03:22:16.587Z,100395.90
2022-08-05T03:24:53.134Z,100393.80
2022-08-05T03:27:29.822Z,100397.83
2022-08-05T03:30:20.804Z,100393.13
2022-08-05T03:33:05.812Z,100393.56
2022-08-05T03:35:40.686Z,100387.38
2022-08-05T03:38:44.599Z,100384.89
2022-08-05T03:41:25.639Z,100382.58
2022-08-05T03:44:11.814Z,100379.65
2022-08-05T03:46:44.143Z,100381.98
2022-08-05T03:49:24.091Z,100382.89
2022-08-05T03:52:36.905Z,100384.28
2022-08-05T03:56:05.580Z,100384.14
2022-08-05T03:58:00.790Z,100384.59
2022-08-05T04:00:34.521Z,100385.92
2022-08-05T04:03:14.830Z,100384.39
2022-08-05T04:06:01.512Z,100382.89
2022-08-05T04:08:36.730Z,100385.08
2022-08-05T04:11:10.582Z,100384.16
2022-08-05T04:13:49.850Z,100387.95
2022-08-05T04:16:25.253Z,100384.98
2022-08-05T04:19:10.507Z,100381.52
2022-08-05T04:22:09.086Z,100380.77
2022-08-05T04:24:36.206Z,100379.08
2022-08-05T04:27:12.116Z,100377.09
2022-08-05T04:29:45.486Z,100378.45
2022-08-05T04:32:30.996Z,100378.55
2022-08-05T04:35:17.404Z,100371.36
2022-08-05T04:38:01.558Z,100371.56
2022-08-05T04:40:38.247Z,100375.74
2022-08-05T04:43:22.061Z,100367.19
2022-08-05T04:45:55.163Z,100373.29
2022-08-05T04:48:28.474Z,100360.15
2022-08-05T04:51:02.887Z,100373.67
2022-08-05T04:53:43.078Z,100366.69
2022-08-05T04:56:34.768Z,100374.60
2022-08-05T04:59:22.009Z,100371.13
2022-08-05T05:02:06.898Z,100370.64
2022-08-05T05:04:44.082Z,100370.19
2022-08-05T05:07:29.266Z,100369.46
2022-08-05T05:10:05.472Z,100368.25
2022-08-05T05:12:38.506Z,100370.69
2022-08-05T05:15:13.214Z,100372.11
2022-08-05T05:17:55.663Z,100375.21
2022-08-05T05:20:29.879Z,100373.92
2022-08-05T05:23:08.410Z,100351.34
2022-08-05T05:25:52.237Z,100362.66
2022-08-05T05:28:25.401Z,100364.52
2022-08-05T05:33:59.535Z,100368.73
2022-08-05T05:36:37.367Z,100369.84
2022-08-05T05:39:11.965Z,100371.52
2022-08-05T05:41:44.458Z,100371.17
2022-08-05T05:44:35.621Z,100371.84
2022-08-05T05:47:21.489Z,100370.77
2022-08-05T05:50:06.297Z,100370.05
2022-08-05T05:52:40.733Z,100367.88
2022-08-05T05:55:19.254Z,100366.42
2022-08-05T05:57:52.210Z,100364.16
2022-08-05T06:00:27.608Z,100367.57
2022-08-05T06:03:40.833Z,100372.31
2022-08-05T06:05:56.935Z,100360.36
2022-08-05T06:08:32.589Z,100367.67
2022-08-05T06:11:07.354Z,100372.23
2022-08-05T06:13:40.738Z,100371.80
2022-08-05T06:16:30.436Z,100369.23
2022-08-05T06:19:05.646Z,100374.47
2022-08-05T06:21:42.965Z,100369.73
2022-08-05T06:24:25.666Z,100372.16
2022-08-05T06:26:58.438Z,100372.86
2022-08-05T06:29:49.306Z,100373.54
2022-08-05T06:32:26.434Z,100372.16
2022-08-05T06:35:06.001Z,100373.38
2022-08-05T06:37:57.976Z,100375.34
2022-08-05T06:40:32.441Z,100376.35
2022-08-05T06:43:05.189Z,100368.52
2022-08-05T06:46:03.940Z,100366.95
2022-08-05T06:48:55.785Z,100368.24
2022-08-05T06:51:30.753Z,100356.37
2022-08-05T06:54:05.106Z,100358.36
2022-08-05T06:56:40.645Z,100364.17
2022-08-05T06:59:26.686Z,100363.31
2022-08-05T07:02:00.319Z,100359.99
2022-08-05T07:04:32.363Z,100359.92
2022-08-05T07:07:07.952Z,100359.27
2022-08-05T07:09:40.751Z,100359.39
2022-08-05T07:12:35.692Z,100354.02
2022-08-05T07:15:34.485Z,100339.34
2022-08-05T07:18:26.968Z,100349.33
2022-08-05T07:21:04.731Z,100348.77
2022-08-05T07:23:49.898Z,100344.14
2022-08-05T07:26:24.886Z,100348.02
2022-08-05T07:28:57.854Z,100336.04
2022-08-05T07:31:40.929Z,100346.29
2022-08-05T07:34:28.805Z,100350.41
2022-08-05T07:37:01.018Z,100336.74
2022-08-05T07:40:04.732Z,100348.57
2022-08-05T07:42:31.788Z,100346.04
2022-08-05T07:45:09.361Z,100346.73
2022-08-05T07:47:43.890Z,100347.27
2022-08-05T07:50:16.718Z,100343.65
2022-08-05T07:52:49.366Z,100347.02
2022-08-05T07:56:04.654Z,100348.98
2022-08-05T07:58:54.510Z,100335.90
2022-08-05T08:01:06.316Z,100345.09
2022-08-05T08:03:45.087Z,100348.42
2022-08-05T08:06:18.417Z,100351.25
2022-08-05T08:08:50.594Z,100350.09
2022-08-05T08:11:27.771Z,100353.23
2022-08-05T08:14:17.526Z,100355.92
2022-08-05T08:16:53.518Z,100346.01
2022-08-05T08:20:21.380Z,100353.74
2022-08-05T08:22:19.598Z,100341.70
2022-08-05T08:24:52.964Z,100339.22
2022-08-05T08:27:35.611Z,100326.61
2022-08-05T08:30:32.252Z,100336.55
2022-08-05T08:33:13.651Z,100336.31
2022-08-05T08:35:52.970Z,100334.23
2022-08-05T08:39:01.627Z,100335.46
2022-08-05T08:41:50.679Z,100335.35
2022-08-05T08:45:24.059Z,100335.20
2022-08-05T08:47:22.248Z,100333.44
2022-08-05T08:50:31.695Z,100328.18
2022-08-05T08:53:12.320Z,100322.38
2022-08-05T08:56:04.713Z,100330.56
2022-08-05T08:58:44.429Z,100327.80
2022-08-05T09:01:21.702Z,100331.08
2022-08-05T09:03:58.399Z,100327.73
2022-08-05T09:06:32.571Z,100331.89
2022-08-05T09:09:08.621Z,100327.74
2022-08-05T09:11:53.354Z,100328.19
2022-08-05T09:14:57.070Z,100323.39
2022-08-05T09:17:42.768Z,100313.29
2022-08-05T09:20:21.053Z,100313.36
2022-08-05T09:23:20.003Z,100317.34
2022-08-05T09:26:20.877Z,100316.60
2022-08-05T09:29:00.387Z,100311.90
2022-08-05T09:32:41.177Z,100311.75
2022-08-05T09:34:26.011Z,100312.85
2022-08-05T09:36:59.309Z,100310.49
2022-08-05T09:39:45.180Z,100297.61
2022-08-05T09:42:24.460Z,100304.59
2022-08-05T09:46:04.847Z,100307.46
2022-08-05T09:48:19.322Z,100306.63
2022-08-05T09:50:54.680Z,100301.83
2022-08-05T09:53:51.114Z,100300.95
2022-08-05T09:56:27.293Z,100284.58
2022-08-05T09:59:02.272Z,100281.98
2022-08-05T10:01:39.606Z,100291.82
2022-08-05T10:04:16.091Z,100297.30
2022-08-05T10:06:59.258Z,100292.25
2022-08-05T10:09:44.961Z,100288.08
2022-08-05T10:12:33.499Z,100288.98
2022-08-05T10:15:21.831Z,100287.09
2022-08-05T10:18:10.323Z,100284.43
2022-08-05T10:20:48.461Z,100277.02
2022-08-05T10:23:56.195Z,100265.02
2022-08-05T10:26:17.055Z,100274.31
2022-08-05T10:28:50.839Z,100270.05
2022-08-05T10:32:54.225Z,100271.61
2022-08-05T10:34:32.316Z,100263.88
2022-08-05T10:37:04.776Z,100264.25
2022-08-05T10:39:58.959Z,100263.98
2022-08-05T10:42:38.532Z,100259.27
2022-08-05T10:45:23.698Z,100268.48
2022-08-05T10:48:52.782Z,100269.95
2022-08-05T10:51:59.857Z,100269.20
2022-08-05T10:54:56.318Z,100265.27
2022-08-05T10:57:34.116Z,100260.63
2022-08-05T11:00:19.831Z,100263.19
2022-08-05T11:03:25.349Z,100256.78
2022-08-05T11:06:16.032Z,100246.40
2022-08-05T11:09:16.706Z,100250.23
2022-08-05T11:11:52.544Z,100245.30
2022-08-05T11:15:19.262Z,100241.41
2022-08-05T11:17:59.014Z,100247.59
2022-08-05T11:20:41.580Z,100246.42
2022-08-05T11:24:02.832Z,100240.15
2022-08-05T11:26:36.112Z,100235.59
2022-08-05T11:29:29.902Z,100238.02
2022-08-05T11:32:29.555Z,100240.70
2022-08-05T11:36:04.474Z,100236.73
2022-08-05T11:38:57.798Z,100240.81
2022-08-05T11:41:54.811Z,100239.84
2022-08-05T11:44:53.867Z,100243.09
2022-08-05T11:47:49.317Z,100246.75
2022-08-05T11:50:22.610Z,100242.73
2022-08-05T11:52:58.238Z,100240.04
2022-08-05T11:55:58.543Z,100241.34
2022-08-05T11:58:41.680Z,100240.72
2022-08-05T12:01:26.085Z,100229.09
2022-08-05T12:03:59.967Z,100239.88
2022-08-05T12:06:41.762Z,100240.00
2022-08-05T12:09:52.612Z,100231.50
2022-08-05T12:12:25.755Z,100230.36
2022-08-05T12:14:58.304Z,100235.50
2022-08-05T12:18:10.030Z,100234.33
2022-08-05T12:20:33.551Z,100232.96
2022-08-05T12:23:15.262Z,100229.42
2022-08-05T12:25:56.955Z,100227.89
2022-08-05T12:28:37.695Z,100228.54
2022-08-05T12:31:10.759Z,100224.16
2022-08-05T12:33:57.583Z,100222.21
2022-08-05T12:36:32.321Z,100227.56
2022-08-05T12:39:07.012Z,100213.39
2022-08-05T12:41:43.558Z,100214.30
2022-08-05T12:44:32.786Z,100213.25
2022-08-05T12:47:07.272Z,100210.11
2022-08-05T12:50:03.113Z,100210.75
2022-08-05T12:52:42.528Z,100206.60
2022-08-05T12:55:25.109Z,100195.05
2022-08-05T12:58:49.515Z,100205.35
2022-08-05T13:02:02.596Z,100208.74
2022-08-05T13:03:48.790Z,100203.73
2022-08-05T13:06:27.438Z,100203.31
2022-08-05T13:09:07.061Z,100203.75
2022-08-05T13:12:03.248Z,100196.39
2022-08-05T13:14:40.834Z,100186.05
2022-08-05T13:17:31.652Z,100194.09
2022-08-05T13:20:08.735Z,100188.17
2022-08-05T13:22:43.440Z,100187.00
2022-08-05T13:25:18.859Z,100193.55
2022-08-05T13:27:56.286Z,100181.17
2022-08-05T13:30:33.835Z,100180.66
2022-08-05T13:33:14.158Z,100178.91
2022-08-05T13:35:51.274Z,100173.76
2022-08-05T13:38:30.958Z,100169.85
2022-08-05T13:41:09.290Z,100162.70
2022-08-05T13:43:45.792Z,100166.39
2022-08-05T13:46:50.916Z,100149.25
2022-08-05T13:49:21.074Z,100159.70
2022-08-05T13:51:54.054Z,100156.17
2022-08-05T13:54:26.485Z,100154.68
2022-08-05T13:56:58.796Z,100151.50
2022-08-05T13:59:32.256Z,100156.47
2022-08-05T14:02:07.446Z,100156.33
2022-08-05T14:05:11.442Z,100153.02
2022-08-05T14:08:00.561Z,100153.95
2022-08-05T14:10:38.906Z,100153.30
2022-08-05T14:13:12.342Z,100152.91
2022-08-05T14:16:04.692Z,100151.85
2022-08-05T14:18:38.825Z,100151.09
2022-08-05T14:22:07.325Z,100148.25
2022-08-05T14:24:04.425Z,100143.17
2022-08-05T14:26:47.084Z,100141.11
2022-08-05T14:29:28.890Z,100135.40
2022-08-05T14:32:13.739Z,100138.88
2022-08-05T14:34:49.474Z,100139.77
2022-08-05T14:37:23.894Z,100143.14
2022-08-05T14:40:16.779Z,100118.89
2022-08-05T14:42:49.207Z,100138.02
2022-08-05T14:45:21.989Z,100142.12
2022-08-05T14:48:03.138Z,100134.26
2022-08-05T14:50:40.784Z,100135.91
2022-08-05T14:53:13.794Z,100135.98
2022-08-05T14:55:52.063Z,100137.92
2022-08-05T14:58:24.638Z,100135.57
2022-08-05T15:00:58.374Z,100131.88
2022-08-05T15:03:39.029Z,100121.05
2022-08-05T15:06:15.100Z,100129.57
2022-08-05T15:08:59.461Z,100126.02
2022-08-05T15:11:52.296Z,100126.42
2022-08-05T15:14:34.446Z,100125.23
2022-08-05T15:17:44.959Z,100122.16
2022-08-05T15:20:02.520Z,100121.29
2022-08-05T15:22:35.630Z,100119.27
2022-08-05T15:25:13.615Z,100118.02
2022-08-05T15:27:51.980Z,100114.85
2022-08-05T15:30:24.878Z,100114.18
2022-08-05T15:32:57.511Z,100107.25
2022-08-05T15:35:36.066Z,100116.57
2022-08-05T15:38:34.522Z,100116.50
2022-08-05T15:41:23.284Z,100115.83
2022-08-05T15:43:54.728Z,100112.49
2022-08-05T15:46:27.661Z,100112.77
2022-08-05T15:49:01.360Z,100115.70
2022-08-05T15:52:03.800Z,100130.67
2022-08-05T15:54:37.609Z,100143.94
2022-08-05T15:57:10.171Z,100148.48
2022-08-05T15:59:42.616Z,100157.33
2022-08-05T16:02:19.787Z,100157.34
2022-08-05T16:04:58.279Z,100170.44
2022-08-05T16:07:30.457Z,100178.20
2022-08-05T16:10:02.659Z,100187.80
2022-08-05T16:12:35.482Z,100185.40
2022-08-05T16:15:18.566Z,100196.89
2022-08-05T16:17:57.384Z,100198.56
2022-08-05T16:20:30.602Z,100200.05
2022-08-05T16:23:05.141Z,100202.56
2022-08-05T16:25:41.492Z,100205.91
2022-08-05T16:28:15.661Z,100206.01
2022-08-05T16:30:48.266Z,100216.73
2022-08-05T16:33:21.285Z,100228.06
2022-08-05T16:35:54.175Z,100228.11
2022-08-05T16:38:28.178Z,100250.70
2022-08-05T16:41:02.271Z,100258.46
2022-08-05T16:43:56.110Z,100270.34
2022-08-05T16:46:27.577Z,100275.94
2022-08-05T16:49:00.115Z,100278.09
2022-08-05T16:51:42.890Z,100289.45
2022-08-05T16:54:30.461Z,100305.77
2022-08-05T16:57:06.777Z,100301.11
2022-08-05T17:00:03.039Z,100317.66
2022-08-05T17:03:03.763Z,100328.83
2022-08-05T17:05:42.194Z,100325.55
2022-08-05T17:08:14.408Z,100334.63
2022-08-05T17:11:08.904Z,100340.51
2022-08-05T17:13:45.269Z,100344.27
2022-08-05T17:16:36.237Z,100349.88
2022-08-05T17:19:10.795Z,100345.04
2022-08-05T17:21:43.251Z,100344.43
2022-08-05T17:24:35.190Z,100356.94
2022-08-05T17:27:12.535Z,100349.00
2022-08-05T17:29:51.481Z,100330.27
2022-08-05T17:32:35.123Z,100323.35
2022-08-05T17:35:10.819Z,100329.66
2022-08-05T17:37:48.373Z,100352.36
2022-08-05T17:40:22.565Z,100344.13
2022-08-05T17:42:55.151Z,100350.09
2022-08-05T17:45:38.298Z,100354.16
2022-08-05T17:48:11.458Z,100352.35
2022-08-05T17:50:43.751Z,100334.44
2022-08-05T17:53:16.910Z,100351.13
2022-08-05T17:55:53.774Z,100361.98
2022-08-05T17:58:32.794Z,100365.05
2022-08-05T18:01:08.168Z,100363.64
2022-08-05T18:04:03.917Z,100374.00
2022-08-05T18:06:36.618Z,100376.19
2022-08-05T18:09:09.857Z,100376.89
2022-08-05T18:11:50.870Z,100372.81
2022-08-05T18:14:25.051Z,100375.84
2022-08-05T18:16:57.330Z,100376.27
2022-08-05T18:19:30.040Z,100379.90
2022-08-05T18:22:09.166Z,100387.52
2022-08-05T18:24:55.085Z,100394.04
2022-08-05T18:27:28.822Z,100394.92
2022-08-05T18:30:01.044Z,100404.96
2022-08-05T18:32:33.647Z,100411.16
2022-08-05T18:35:06.962Z,100414.45
2022-08-05T18:37:43.843Z,100417.27
2022-08-05T18:41:50.715Z,100420.45
2022-08-05T18:43:09.110Z,100417.77
2022-08-05T18:45:49.827Z,100418.56
2022-08-05T18:48:31.241Z,100423.97
2022-08-05T18:52:06.302Z,100426.08
2022-08-05T18:54:18.084Z,100433.33
2022-08-05T18:56:51.271Z,100436.31
2022-08-05T18:59:44.254Z,100433.11
2022-08-05T19:02:26.460Z,100435.63
2022-08-05T19:06:13.370Z,100436.35
2022-08-05T19:07:58.241Z,100442.03
2022-08-05T19:10:31.590Z,100446.80
2022-08-05T19:13:04.258Z,100453.00
2022-08-05T19:15:59.323Z,100450.70
2022-08-05T19:18:31.251Z,100453.34
2022-08-05T19:21:04.766Z,100462.98
2022-08-05T19:24:07.482Z,100467.09
2022-08-05T19:26:33.929Z,100467.96
2022-08-05T19:29:07.023Z,100467.89
2022-08-05T19:31:44.921Z,100476.05
2022-08-05T19:34:23.894Z,100478.63
2022-08-05T19:36:56.945Z,100482.31
2022-08-05T19:39:30.205Z,100477.02
2022-08-05T19:42:07.318Z,100478.67
2022-08-05T19:44:44.910Z,100478.34
2022-08-05T19:47:17.947Z,100481.73
2022-08-05T19:49:50.374Z,100482.66
2022-08-05T19:52:31.604Z,100488.45
2022-08-05T19:55:08.961Z,100490.28
2022-08-05T19:58:07.068Z,100471.59
2022-08-05T20:00:50.020Z,100490.48
2022-08-05T20:03:22.241Z,100493.09
2022-08-05T20:05:56.844Z,100502.61
2022-08-05T20:08:31.270Z,100506.74
2022-08-05T20:11:03.585Z,100509.23
2022-08-05T20:13:58.600Z,100505.65
2022-08-05T20:16:28.492Z,100500.27
2022-08-05T20:19:01.775Z,100503.54
2022-08-05T20:21:34.116Z,100488.69
2022-08-05T20:24:11.493Z,100502.77
2022-08-05T20:26:43.912Z,100506.57
2022-08-05T20:29:27.413Z,100510.95
2022-08-05T20:32:01.345Z,100520.16
2022-08-05T20:34:34.970Z,100523.70
2022-08-05T20:37:17.969Z,100517.08
2022-08-05T20:40:00.827Z,100517.80
2022-08-05T20:42:33.059Z,100510.95
2022-08-05T20:45:06.152Z,100526.48
2022-08-05T20:47:40.156Z,100532.60
2022-08-05T20:50:13.307Z,100537.19
2022-08-05T20:52:46.503Z,100539.47
2022-08-05T20:55:56.877Z,100542.66
2022-08-05T20:58:10.952Z,100546.44
2022-08-05T21:00:54.809Z,100555.73
2022-08-05T21:04:00.393Z,100558.20
2022-08-05T21:06:57.186Z,100567.80
2022-08-05T21:09:30.551Z,100575.63
2022-08-05T21:12:09.396Z,100571.91
2022-08-05T21:14:51.384Z,100570.17
2022-08-05T21:17:26.505Z,100571.60
2022-08-05T21:20:50.959Z,100580.73
2022-08-05T21:28:23.599Z,100570.75
2022-08-05T21:31:41.274Z,100591.32
2022-08-05T21:35:30.357Z,100598.65
2022-08-05T21:38:09.641Z,100597.94
2022-08-05T21:40:42.307Z,100606.66
2022-08-05T21:43:24.489Z,100609.93
2022-08-05T21:46:00.292Z,100615.66
2022-08-05T21:48:33.172Z,100620.05
2022-08-05T21:52:15.735Z,100621.58
2022-08-05T21:53:59.646Z,100626.06
2022-08-05T21:56:36.343Z,100630.08
2022-08-05T21:59:22.541Z,100629.39
2022-08-05T22:01:57.347Z,100630.67
2022-08-05T22:04:29.491Z,100635.34
2022-08-05T22:07:01.592Z,100645.52
2022-08-05T22:09:46.153Z,100652.50
2022-08-05T22:12:17.229Z,100649.03
2022-08-05T22:14:49.544Z,100663.59
2022-08-05T22:17:21.711Z,100662.04
2022-08-05T22:20:01.230Z,100666.99
2022-08-05T22:22:52.550Z,100668.48
2022-08-05T22:26:10.131Z,100669.71
2022-08-05T22:28:36.131Z,100668.46
2022-08-05T22:31:11.306Z,100664.86
2022-08-05T22:33:55.506Z,100669.68
2022-08-05T22:36:26.906Z,100676.67
2022-08-05T22:39:09.059Z,100676.20
2022-08-05T22:42:10.556Z,100675.52
2022-08-05T22:44:35.766Z,100679.34
2022-08-05T22:47:08.003Z,100674.31
2022-08-05T22:50:18.526Z,100664.10
2022-08-05T22:52:37.808Z,100675.67
2022-08-05T22:55:18.289Z,100678.33
2022-08-05T22:57:51.609Z,100677.36
2022-08-05T23:00:26.551Z,100670.39
2022-08-05T23:02:59.640Z,100672.79
2022-08-05T23:05:36.634Z,100676.30
2022-08-05T23:08:12.405Z,100676.80
2022-08-05T23:10:46.414Z,100675.83
2022-08-05T23:13:18.792Z,100676.06
2022-08-05T23:15:52.302Z,100683.04
2022-08-05T23:18:24.433Z,100675.08
2022-08-05T23:20:56.736Z,100691.98
2022-08-05T23:23:33.699Z,100704.02
2022-08-05T23:26:06.378Z,100713.88
2022-08-05T23:28:39.159Z,100714.58
2022-08-05T23:31:43.686Z,100716.27
2022-08-05T23:34:24.531Z,100719.49
2022-08-05T23:36:57.797Z,100732.57
2022-08-05T23:39:53.974Z,100736.48
2022-08-05T23:42:29.182Z,100737.33
2022-08-05T23:45:02.042Z,100738.12
2022-08-05T23:47:34.256Z,100732.73
2022-08-05T23:50:09.393Z,100729.63
2022-08-05T23:52:49.696Z,100739.95
2022-08-05T23:55:24.650Z,100747.04
2022-08-05T23:58:02.939Z,100752.59
